createdAt,value
2023-02-01T00:00:58.101Z,96832.94
2023-02-01T00:03:27.355Z,96826.59
2023-02-01T00:05:58.988Z,96816.59
2023-02-01T00:08:27.283Z,96820.94
2023-02-01T00:11:05.877Z,96824.75
2023-02-01T00:13:35.651Z,96833.03
2023-02-01T00:16:07.973Z,96824.75
2023-02-01T00:18:36.449Z,96814.03
2023-02-01T00:21:05.020Z,96817.59
2023-02-01T00:23:34.318Z,96823.25
2023-02-01T00:26:04.318Z,96814.97
2023-02-01T00:28:32.592Z,96811.31
2023-02-01T00:31:01.652Z,96816.69
2023-02-01T00:33:30.517Z,96809.91
2023-02-01T00:35:59.739Z,96809.31
2023-02-01T00:38:28.124Z,96797.13
2023-02-01T00:40:56.579Z,96796.44
2023-02-01T00:43:26.178Z,96788.66
2023-02-01T00:45:54.413Z,96799.81
2023-02-01T00:48:22.638Z,96790.34
2023-02-01T00:50:50.892Z,96793.53
2023-02-01T00:53:19.170Z,96787.69
2023-02-01T00:55:48.000Z,96790.13
2023-02-01T00:58:16.359Z,96780.78
2023-02-01T01:00:47.616Z,96807.56
2023-02-01T01:03:19.581Z,96803.38
2023-02-01T01:05:48.125Z,96793.94
2023-02-01T01:08:16.668Z,96804.09
2023-02-01T01:10:45.206Z,96774.41
2023-02-01T01:13:13.456Z,96788.81
2023-02-01T01:15:42.192Z,96785.63
2023-02-01T01:18:11.811Z,96785.50
2023-02-01T01:20:42.034Z,96790.28
2023-02-01T01:23:10.945Z,96797.13
2023-02-01T01:25:40.310Z,96787.31
2023-02-01T01:28:09.374Z,96781.56
2023-02-01T01:30:37.783Z,96789.69
2023-02-01T01:33:06.599Z,96794.13
2023-02-01T01:35:36.467Z,96788.88
2023-02-01T01:38:05.056Z,96767.84
2023-02-01T01:40:33.696Z,96770.47
2023-02-01T01:43:01.973Z,96760.88
2023-02-01T01:45:32.027Z,96770.13
2023-02-01T01:48:01.778Z,96766.91
2023-02-01T01:50:32.637Z,96762.28
2023-02-01T01:53:03.527Z,96756.34
2023-02-01T01:55:34.387Z,96755.66
2023-02-01T01:58:06.476Z,96766.22
2023-02-01T02:00:35.379Z,96765.16
2023-02-01T02:03:10.978Z,96764.28
2023-02-01T02:05:39.566Z,96757.06
2023-02-01T02:08:09.194Z,96762.59
2023-02-01T02:11:01.429Z,96754.84
2023-02-01T02:13:32.976Z,96751.53
2023-02-01T02:16:19.825Z,96746.91
2023-02-01T02:18:54.722Z,96752.56
2023-02-01T02:21:36.326Z,96764.63
2023-02-01T02:24:39.246Z,96749.56
2023-02-01T02:27:35.646Z,96756.28
2023-02-01T02:30:43.725Z,96758.66
2023-02-01T02:33:39.873Z,96761.69
2023-02-01T02:36:12.138Z,96738.94
2023-02-01T02:38:46.708Z,96740.63
2023-02-01T02:41:38.683Z,96744.88
2023-02-01T02:44:30.556Z,96722.69
2023-02-01T02:47:21.321Z,96738.53
2023-02-01T02:50:11.770Z,96737.38
2023-02-01T02:53:04.078Z,96724.69
2023-02-01T02:55:33.973Z,96723.66
2023-02-01T02:58:19.773Z,96727.81
2023-02-01T03:01:05.678Z,96724.09
2023-02-01T03:03:51.638Z,96706.81
2023-02-01T03:06:21.313Z,96706.22
2023-02-01T03:08:49.560Z,96706.91
2023-02-01T03:11:18.037Z,96698.06
2023-02-01T03:13:48.531Z,96715.66
2023-02-01T03:16:23.438Z,96721.81
2023-02-01T03:18:55.183Z,96707.75
2023-02-01T03:21:26.866Z,96710.06
2023-02-01T03:23:55.950Z,96706.97
2023-02-01T03:26:24.573Z,96709.59
2023-02-01T03:28:57.638Z,96708.19
2023-02-01T03:31:26.395Z,96715.56
2023-02-01T03:33:54.707Z,96696.94
2023-02-01T03:36:28.975Z,96703.25
2023-02-01T03:39:01.813Z,96696.31
2023-02-01T03:41:36.961Z,96699.00
2023-02-01T03:44:11.307Z,96689.78
2023-02-01T03:46:42.885Z,96696.19
2023-02-01T03:49:13.467Z,96690.78
2023-02-01T03:51:42.961Z,96710.75
2023-02-01T03:54:14.212Z,96689.50
2023-02-01T03:56:45.718Z,96678.19
2023-02-01T03:59:14.588Z,96692.22
2023-02-01T04:01:42.911Z,96684.88
2023-02-01T04:04:11.510Z,96686.13
2023-02-01T04:06:39.850Z,96684.53
2023-02-01T04:09:09.651Z,96680.41
2023-02-01T04:11:37.931Z,96689.78
2023-02-01T04:14:06.213Z,96687.84
2023-02-01T04:16:34.728Z,96678.75
2023-02-01T04:19:03.123Z,96663.75
2023-02-01T04:21:31.735Z,96671.75
2023-02-01T04:24:00.093Z,96679.16
2023-02-01T04:26:29.787Z,96685.41
2023-02-01T04:28:58.217Z,96681.84
2023-02-01T04:31:28.152Z,96660.41
2023-02-01T04:33:58.476Z,96671.19
2023-02-01T04:36:26.892Z,96683.22
2023-02-01T04:38:55.214Z,96678.72
2023-02-01T04:41:23.873Z,96688.03
2023-02-01T04:43:54.117Z,96688.88
2023-02-01T04:46:23.110Z,96680.38
2023-02-01T04:48:51.445Z,96681.69
2023-02-01T04:51:19.997Z,96667.53
2023-02-01T04:53:48.247Z,96694.28
2023-02-01T04:56:16.488Z,96690.50
2023-02-01T04:58:44.749Z,96662.81
2023-02-01T05:01:14.403Z,96671.69
2023-02-01T05:03:42.672Z,96675.06
2023-02-01T05:06:11.373Z,96684.91
2023-02-01T05:08:39.663Z,96691.19
2023-02-01T05:11:28.270Z,96673.75
2023-02-01T05:13:55.575Z,96686.28
2023-02-01T05:16:26.245Z,96664.63
2023-02-01T05:18:54.359Z,96684.84
2023-02-01T05:21:22.739Z,96681.25
2023-02-01T05:24:08.568Z,96686.25
2023-02-01T05:26:37.029Z,96688.19
2023-02-01T05:29:05.869Z,96676.03
2023-02-01T05:31:35.606Z,96688.56
2023-02-01T05:34:04.037Z,96685.53
2023-02-01T05:36:32.324Z,96647.66
2023-02-01T05:39:00.653Z,96691.06
2023-02-01T05:41:28.914Z,96672.97
2023-02-01T05:43:57.301Z,96680.38
2023-02-01T05:46:25.854Z,96681.38
2023-02-01T05:48:55.648Z,96659.50
2023-02-01T05:51:23.922Z,96674.78
2023-02-01T05:53:52.184Z,96654.59
2023-02-01T05:56:20.586Z,96662.84
2023-02-01T05:58:48.902Z,96654.69
2023-02-01T06:01:17.161Z,96655.69
2023-02-01T06:03:45.525Z,96642.66
2023-02-01T06:06:15.198Z,96658.78
2023-02-01T06:08:43.468Z,96651.31
2023-02-01T06:11:15.313Z,96655.94
2023-02-01T06:13:48.557Z,96645.63
2023-02-01T06:16:17.095Z,96617.41
2023-02-01T06:18:45.402Z,96640.16
2023-02-01T06:21:16.796Z,96622.03
2023-02-01T06:23:45.059Z,96631.91
2023-02-01T06:26:13.276Z,96639.91
2023-02-01T06:28:41.516Z,96634.72
2023-02-01T06:31:09.880Z,96630.97
2023-02-01T06:33:38.849Z,96609.44
2023-02-01T06:36:09.333Z,96612.63
2023-02-01T06:38:39.781Z,96619.00
2023-02-01T06:41:08.146Z,96595.94
2023-02-01T06:43:36.483Z,96620.78
2023-02-01T06:46:06.679Z,96640.72
2023-02-01T06:48:35.351Z,96634.84
2023-02-01T06:51:03.861Z,96627.91
2023-02-01T06:53:32.201Z,96637.00
2023-02-01T06:56:03.233Z,96642.59
2023-02-01T06:58:32.358Z,96641.47
2023-02-01T07:01:03.300Z,96637.66
2023-02-01T07:03:31.539Z,96643.00
2023-02-01T07:06:00.437Z,96653.84
2023-02-01T07:08:29.623Z,96657.53
2023-02-01T07:10:58.139Z,96637.19
2023-02-01T07:13:27.739Z,96664.59
2023-02-01T07:15:55.986Z,96630.47
2023-02-01T07:18:24.275Z,96632.59
2023-02-01T07:20:53.150Z,96623.03
2023-02-01T07:23:21.501Z,96632.47
2023-02-01T07:25:50.100Z,96634.78
2023-02-01T07:28:18.491Z,96641.94
2023-02-01T07:30:51.892Z,96644.94
2023-02-01T07:33:22.174Z,96651.25
2023-02-01T07:35:51.392Z,96644.19
2023-02-01T07:38:20.620Z,96663.25
2023-02-01T07:40:48.884Z,96661.41
2023-02-01T07:43:17.249Z,96664.50
2023-02-01T07:45:45.535Z,96654.50
2023-02-01T07:48:15.120Z,96660.78
2023-02-01T07:50:43.359Z,96661.38
2023-02-01T07:53:11.647Z,96654.41
2023-02-01T07:55:39.909Z,96654.78
2023-02-01T07:58:08.292Z,96645.88
2023-02-01T08:00:54.261Z,96674.19
2023-02-01T08:03:23.898Z,96672.75
2023-02-01T08:05:56.497Z,96679.41
2023-02-01T08:08:24.852Z,96655.28
2023-02-01T08:10:55.506Z,96677.56
2023-02-01T08:13:23.539Z,96682.31
2023-02-01T08:15:51.722Z,96688.94
2023-02-01T08:18:20.112Z,96684.75
2023-02-01T08:20:49.754Z,96682.41
2023-02-01T08:23:18.084Z,96690.94
2023-02-01T08:25:46.549Z,96693.63
2023-02-01T08:28:14.885Z,96694.41
2023-02-01T08:30:44.122Z,96687.69
2023-02-01T08:33:12.775Z,96671.88
2023-02-01T08:35:44.127Z,96692.44
2023-02-01T08:38:13.912Z,96688.03
2023-02-01T08:40:42.781Z,96689.88
2023-02-01T08:43:11.013Z,96696.00
2023-02-01T08:45:39.308Z,96682.22
2023-02-01T08:48:07.870Z,96676.38
2023-02-01T08:50:36.132Z,96685.41
2023-02-01T08:53:04.388Z,96685.53
2023-02-01T08:55:34.015Z,96674.00
2023-02-01T08:58:02.269Z,96689.50
2023-02-01T09:00:30.608Z,96695.00
2023-02-01T09:02:59.602Z,96688.63
2023-02-01T09:05:40.656Z,96665.84
2023-02-01T09:08:16.801Z,96668.13
2023-02-01T09:10:46.388Z,96603.00
2023-02-01T09:13:14.612Z,96674.94
2023-02-01T09:15:43.000Z,96674.03
2023-02-01T09:18:11.294Z,96671.81
2023-02-01T09:20:39.598Z,96657.31
2023-02-01T09:23:08.484Z,96654.00
2023-02-01T09:25:38.552Z,96678.03
2023-02-01T09:28:10.091Z,96688.34
2023-02-01T09:30:39.131Z,96676.44
2023-02-01T09:33:07.527Z,96678.69
2023-02-01T09:35:35.821Z,96691.28
2023-02-01T09:38:04.108Z,96691.44
2023-02-01T09:40:32.663Z,96689.59
2023-02-01T09:43:21.296Z,96713.91
2023-02-01T09:45:54.325Z,96684.47
2023-02-01T09:48:25.632Z,96672.88
2023-02-01T09:50:57.437Z,96687.03
2023-02-01T09:53:28.925Z,96698.84
2023-02-01T09:56:01.348Z,96659.75
2023-02-01T09:58:35.108Z,96686.50
2023-02-01T10:01:05.429Z,96698.00
2023-02-01T10:03:36.610Z,96688.38
2023-02-01T10:06:18.556Z,96675.19
2023-02-01T10:09:04.696Z,96704.25
2023-02-01T10:11:50.110Z,96702.53
2023-02-01T10:14:34.307Z,96701.44
2023-02-01T10:17:07.976Z,96691.94
2023-02-01T10:19:43.104Z,96680.78
2023-02-01T10:22:12.498Z,96692.34
2023-02-01T10:24:43.542Z,96699.16
2023-02-01T10:27:17.145Z,96710.78
2023-02-01T10:29:49.153Z,96714.09
2023-02-01T10:32:19.311Z,96708.63
2023-02-01T10:34:51.065Z,96678.66
2023-02-01T10:37:29.074Z,96692.34
2023-02-01T10:39:58.599Z,96719.09
2023-02-01T10:42:28.876Z,96716.00
2023-02-01T10:45:00.707Z,96720.50
2023-02-01T10:47:28.988Z,96712.34
2023-02-01T10:50:04.438Z,96699.72
2023-02-01T10:52:40.588Z,96715.56
2023-02-01T10:55:27.886Z,96711.44
2023-02-01T10:58:00.238Z,96690.75
2023-02-01T11:00:31.496Z,96722.41
2023-02-01T11:02:59.807Z,96730.50
2023-02-01T11:05:28.302Z,96719.38
2023-02-01T11:07:57.208Z,96725.78
2023-02-01T11:10:39.854Z,96733.59
2023-02-01T11:13:16.954Z,96743.69
2023-02-01T11:15:47.883Z,96703.38
2023-02-01T11:18:18.997Z,96731.13
2023-02-01T11:20:50.313Z,96727.28
2023-02-01T11:23:19.944Z,96734.25
2023-02-01T11:25:53.563Z,96711.69
2023-02-01T11:28:23.984Z,96725.03
2023-02-01T11:30:56.458Z,96708.28
2023-02-01T11:33:30.788Z,96734.44
2023-02-01T11:35:59.701Z,96709.69
2023-02-01T11:38:30.309Z,96740.72
2023-02-01T11:40:59.581Z,96722.03
2023-02-01T11:43:29.295Z,96713.75
2023-02-01T11:46:00.839Z,96726.50
2023-02-01T11:48:30.543Z,96716.22
2023-02-01T11:51:09.446Z,96714.88
2023-02-01T11:53:49.119Z,96711.28
2023-02-01T11:56:24.394Z,96691.75
2023-02-01T11:59:12.622Z,96680.78
2023-02-01T12:01:51.470Z,96682.81
2023-02-01T12:05:00.206Z,96678.94
2023-02-01T12:07:42.091Z,96666.28
2023-02-01T12:10:24.480Z,96668.06
2023-02-01T12:13:00.543Z,96658.16
2023-02-01T12:15:48.349Z,96645.25
2023-02-01T12:18:58.146Z,96671.03
2023-02-01T12:21:37.940Z,96643.13
2023-02-01T12:24:40.767Z,96669.13
2023-02-01T12:27:33.514Z,96676.00
2023-02-01T12:30:22.452Z,96662.34
2023-02-01T12:33:00.012Z,96660.16
2023-02-01T12:35:43.326Z,96637.50
2023-02-01T12:38:28.318Z,96650.91
2023-02-01T12:41:07.886Z,96649.34
2023-02-01T12:43:40.894Z,96641.66
2023-02-01T12:46:13.473Z,96635.09
2023-02-01T12:48:46.509Z,96641.88
2023-02-01T12:51:18.950Z,96639.38
2023-02-01T12:53:50.472Z,96644.97
2023-02-01T12:56:23.182Z,96651.22
2023-02-01T12:58:53.399Z,96652.94
2023-02-01T13:01:24.389Z,96653.72
2023-02-01T13:03:57.925Z,96654.38
2023-02-01T13:06:30.753Z,96630.34
2023-02-01T13:09:04.498Z,96623.75
2023-02-01T13:11:35.259Z,96652.44
2023-02-01T13:14:07.881Z,96625.59
2023-02-01T13:16:38.079Z,96646.88
2023-02-01T13:19:12.961Z,96620.38
2023-02-01T13:21:45.580Z,96646.59
2023-02-01T13:24:26.580Z,96624.66
2023-02-01T13:26:56.213Z,96618.50
2023-02-01T13:29:26.072Z,96642.25
2023-02-01T13:33:18.234Z,96631.53
2023-02-01T13:35:50.960Z,96622.72
2023-02-01T13:39:11.043Z,96619.06
2023-02-01T13:41:43.851Z,96631.66
2023-02-01T13:44:15.144Z,96600.78
2023-02-01T13:46:44.710Z,96616.22
2023-02-01T13:49:20.989Z,96619.31
2023-02-01T13:51:51.424Z,96638.03
2023-02-01T13:54:28.446Z,96621.56
2023-02-01T13:57:00.149Z,96608.53
2023-02-01T13:59:55.863Z,96617.69
2023-02-01T14:03:17.153Z,96634.38
2023-02-01T14:06:01.859Z,96624.00
2023-02-01T14:08:44.848Z,96619.84
2023-02-01T14:11:45.797Z,96622.34
2023-02-01T14:14:49.878Z,96632.88
2023-02-01T14:17:42.011Z,96618.16
2023-02-01T14:20:46.863Z,96629.91
2023-02-01T14:23:18.891Z,96626.19
2023-02-01T14:25:47.848Z,96627.59
2023-02-01T14:28:26.337Z,96619.56
2023-02-01T14:30:59.214Z,96625.88
2023-02-01T14:33:29.372Z,96629.06
2023-02-01T14:36:08.026Z,96636.19
2023-02-01T14:38:38.648Z,96649.81
2023-02-01T14:41:13.930Z,96648.41
2023-02-01T14:43:52.144Z,96638.34
2023-02-01T14:46:22.010Z,96654.63
2023-02-01T14:48:50.629Z,96652.84
2023-02-01T14:51:19.776Z,96638.25
2023-02-01T14:53:48.523Z,96658.47
2023-02-01T14:56:21.285Z,96662.19
2023-02-01T14:58:54.718Z,96665.41
2023-02-01T15:01:26.368Z,96647.19
2023-02-01T15:03:58.550Z,96665.88
2023-02-01T15:06:33.396Z,96644.13
2023-02-01T15:09:05.316Z,96660.41
2023-02-01T15:11:33.691Z,96654.34
2023-02-01T15:14:02.104Z,96660.31
2023-02-01T15:16:31.789Z,96659.25
2023-02-01T15:19:11.046Z,96670.03
2023-02-01T15:21:47.970Z,96665.19
2023-02-01T15:24:21.128Z,96645.88
2023-02-01T15:26:49.820Z,96655.41
2023-02-01T15:29:18.945Z,96657.91
2023-02-01T15:31:50.305Z,96675.81
2023-02-01T15:34:19.281Z,96624.63
2023-02-01T15:37:02.141Z,96667.69
2023-02-01T15:39:32.866Z,96646.66
2023-02-01T15:42:04.056Z,96657.38
2023-02-01T15:44:36.221Z,96665.44
2023-02-01T15:47:17.209Z,96660.69
2023-02-01T15:49:47.078Z,96677.56
2023-02-01T15:52:23.597Z,96684.69
2023-02-01T15:54:55.088Z,96683.28
2023-02-01T15:57:31.300Z,96679.56
2023-02-01T16:00:00.597Z,96668.44
2023-02-01T16:02:36.458Z,96691.75
2023-02-01T16:05:05.512Z,96691.25
2023-02-01T16:07:35.329Z,96692.78
2023-02-01T16:10:08.001Z,96695.66
2023-02-01T16:12:48.766Z,96692.50
2023-02-01T16:15:17.273Z,96691.56
2023-02-01T16:17:46.948Z,96689.63
2023-02-01T16:20:15.282Z,96698.50
2023-02-01T16:22:43.564Z,96696.69
2023-02-01T16:25:11.837Z,96702.19
2023-02-01T16:27:40.088Z,96700.91
2023-02-01T16:30:10.879Z,96693.47
2023-02-01T16:32:40.238Z,96701.06
2023-02-01T16:35:20.017Z,96707.19
2023-02-01T16:37:48.326Z,96699.03
2023-02-01T16:40:17.370Z,96699.63
2023-02-01T16:42:45.952Z,96704.59
2023-02-01T16:45:14.252Z,96714.00
2023-02-01T16:47:52.217Z,96702.00
2023-02-01T16:50:24.462Z,96700.03
2023-02-01T16:52:54.004Z,96703.94
2023-02-01T16:55:24.016Z,96704.53
2023-02-01T16:57:52.847Z,96695.41
2023-02-01T17:00:24.974Z,96690.31
2023-02-01T17:02:54.126Z,96688.38
2023-02-01T17:05:24.182Z,96700.94
2023-02-01T17:07:53.325Z,96689.34
2023-02-01T17:10:34.386Z,96691.19
2023-02-01T17:13:03.462Z,96678.56
2023-02-01T17:15:36.842Z,96683.63
2023-02-01T17:18:05.453Z,96667.56
2023-02-01T17:20:35.999Z,96658.09
2023-02-01T17:23:05.618Z,96667.78
2023-02-01T17:25:33.914Z,96680.56
2023-02-01T17:28:02.335Z,96678.59
2023-02-01T17:30:31.940Z,96680.31
2023-02-01T17:33:05.466Z,96687.06
2023-02-01T17:35:39.933Z,96690.13
2023-02-01T17:38:12.421Z,96679.22
2023-02-01T17:40:40.744Z,96679.50
2023-02-01T17:43:13.728Z,96680.41
2023-02-01T17:45:47.556Z,96683.41
2023-02-01T17:48:15.874Z,96695.50
2023-02-01T17:50:46.492Z,96691.97
2023-02-01T17:53:15.090Z,96692.91
2023-02-01T17:55:45.477Z,96696.72
2023-02-01T17:58:15.377Z,96694.88
2023-02-01T18:00:44.293Z,96683.97
2023-02-01T18:03:23.693Z,96699.25
2023-02-01T18:05:54.854Z,96685.69
2023-02-01T18:08:24.156Z,96693.31
2023-02-01T18:10:54.342Z,96691.44
2023-02-01T18:13:22.923Z,96691.28
2023-02-01T18:15:51.208Z,96686.97
2023-02-01T18:18:19.454Z,96676.31
2023-02-01T18:20:48.344Z,96663.91
2023-02-01T18:23:20.676Z,96675.00
2023-02-01T18:25:49.626Z,96669.97
2023-02-01T18:28:18.434Z,96665.41
2023-02-01T18:30:48.451Z,96649.28
2023-02-01T18:33:18.776Z,96668.91
2023-02-01T18:35:47.191Z,96649.25
2023-02-01T18:38:16.115Z,96640.47
2023-02-01T18:40:51.092Z,96655.38
2023-02-01T18:43:19.767Z,96657.97
2023-02-01T18:45:48.810Z,96652.97
2023-02-01T18:48:19.467Z,96658.44
2023-02-01T18:50:47.974Z,96680.63
2023-02-01T18:53:20.025Z,96661.94
2023-02-01T18:55:52.644Z,96667.41
2023-02-01T18:58:21.892Z,96675.59
2023-02-01T19:00:50.276Z,96679.84
2023-02-01T19:03:18.592Z,96675.97
2023-02-01T19:05:48.233Z,96672.00
2023-02-01T19:08:16.564Z,96679.63
2023-02-01T19:10:45.188Z,96680.22
2023-02-01T19:13:14.965Z,96687.28
2023-02-01T19:15:43.982Z,96673.28
2023-02-01T19:18:12.348Z,96674.75
2023-02-01T19:20:45.484Z,96665.66
2023-02-01T19:23:14.309Z,96667.50
2023-02-01T19:25:45.527Z,96663.91
2023-02-01T19:28:15.723Z,96679.19
2023-02-01T19:30:44.976Z,96624.44
2023-02-01T19:33:13.556Z,96671.19
2023-02-01T19:35:41.885Z,96654.16
2023-02-01T19:38:11.468Z,96659.72
2023-02-01T19:40:39.904Z,96669.94
2023-02-01T19:43:08.251Z,96664.72
2023-02-01T19:45:38.038Z,96665.69
2023-02-01T19:48:07.859Z,96667.88
2023-02-01T19:50:36.318Z,96655.84
2023-02-01T19:53:04.737Z,96670.81
2023-02-01T19:55:33.236Z,96691.09
2023-02-01T19:58:02.465Z,96670.81
2023-02-01T20:00:30.054Z,96650.38
2023-02-01T20:02:59.875Z,96673.56
2023-02-01T20:05:28.296Z,96678.47
2023-02-01T20:07:56.708Z,96657.88
2023-02-01T20:10:25.109Z,96706.53
2023-02-01T20:12:53.536Z,96619.69
2023-02-01T20:15:24.750Z,96674.94
2023-02-01T20:17:53.694Z,96671.06
2023-02-01T20:20:24.217Z,96688.03
2023-02-01T20:22:53.201Z,96688.22
2023-02-01T20:25:21.956Z,96644.69
2023-02-01T20:27:52.124Z,96669.94
2023-02-01T20:30:21.003Z,96689.84
2023-02-01T20:32:50.513Z,96669.44
2023-02-01T20:35:19.173Z,96677.41
2023-02-01T20:37:49.331Z,96665.88
2023-02-01T20:40:17.871Z,96704.88
2023-02-01T20:42:46.288Z,96700.84
2023-02-01T20:45:14.812Z,96698.19
2023-02-01T20:47:43.387Z,96687.53
2023-02-01T20:50:12.907Z,96692.94
2023-02-01T20:52:41.255Z,96693.75
2023-02-01T20:55:11.237Z,96673.09
2023-02-01T20:57:39.657Z,96669.13
2023-02-01T21:00:10.635Z,96674.97
2023-02-01T21:02:39.870Z,96664.34
2023-02-01T21:05:09.382Z,96657.47
2023-02-01T21:07:37.981Z,96660.91
2023-02-01T21:10:07.479Z,96633.59
2023-02-01T21:12:37.264Z,96643.50
2023-02-01T21:15:06.621Z,96635.44
2023-02-01T21:17:35.111Z,96641.91
2023-02-01T21:20:03.505Z,96630.56
2023-02-01T21:22:32.143Z,96656.25
2023-02-01T21:25:02.063Z,96644.28
2023-02-01T21:27:30.699Z,96622.66
2023-02-01T21:30:00.515Z,96637.06
2023-02-01T21:32:28.931Z,96641.13
2023-02-01T21:34:58.568Z,96622.16
2023-02-01T21:37:27.154Z,96636.72
2023-02-01T21:39:57.365Z,96652.59
2023-02-01T21:42:26.625Z,96648.44
2023-02-01T21:44:55.239Z,96652.69
2023-02-01T21:47:26.710Z,96654.59
2023-02-01T21:49:55.997Z,96665.69
2023-02-01T21:52:25.198Z,96674.72
2023-02-01T21:54:59.479Z,96668.06
2023-02-01T21:57:28.763Z,96664.19
2023-02-01T21:59:58.952Z,96677.22
2023-02-01T22:02:29.263Z,96659.50
2023-02-01T22:04:58.664Z,96677.66
2023-02-01T22:07:27.042Z,96647.44
2023-02-01T22:09:55.700Z,96638.81
2023-02-01T22:12:24.066Z,96669.28
2023-02-01T22:14:52.487Z,96655.03
2023-02-01T22:17:20.878Z,96669.16
2023-02-01T22:19:50.667Z,96670.94
2023-02-01T22:22:19.175Z,96661.19
2023-02-01T22:24:47.889Z,96673.81
2023-02-01T22:27:16.787Z,96662.19
2023-02-01T22:29:45.198Z,96661.25
2023-02-01T22:32:14.409Z,96669.63
2023-02-01T22:34:42.949Z,96666.38
2023-02-01T22:37:12.751Z,96639.19
2023-02-01T22:39:41.569Z,96669.06
2023-02-01T22:42:10.017Z,96644.91
2023-02-01T22:44:39.657Z,96629.03
2023-02-01T22:47:09.210Z,96663.53
2023-02-01T22:49:37.512Z,96652.56
2023-02-01T22:52:05.941Z,96657.09
2023-02-01T22:54:35.823Z,96659.56
2023-02-01T22:57:04.541Z,96653.22
2023-02-01T22:59:32.943Z,96622.38
2023-02-01T23:02:01.348Z,96669.47
2023-02-01T23:04:29.748Z,96654.59
2023-02-01T23:06:58.197Z,96655.63
2023-02-01T23:09:27.363Z,96657.03
2023-02-01T23:11:57.122Z,96655.84
2023-02-01T23:14:25.772Z,96681.84
2023-02-01T23:16:54.153Z,96674.03
2023-02-01T23:19:22.927Z,96662.41
2023-02-01T23:21:51.287Z,96665.75
2023-02-01T23:24:19.798Z,96665.34
2023-02-01T23:26:48.248Z,96682.38
2023-02-01T23:29:19.658Z,96667.88
2023-02-01T23:31:48.181Z,96666.06
2023-02-01T23:34:16.737Z,96654.00
2023-02-01T23:36:45.464Z,96668.19
2023-02-01T23:39:13.873Z,96685.06
2023-02-01T23:41:42.263Z,96680.38
2023-02-01T23:44:10.969Z,96699.69
2023-02-01T23:46:44.517Z,96703.13
2023-02-01T23:49:13.033Z,96698.84
2023-02-01T23:51:43.444Z,96690.97
2023-02-01T23:54:12.812Z,96690.09
2023-02-01T23:56:42.829Z,96697.59
2023-02-01T23:59:15.292Z,96676.50
